createdAt,value
2023-06-30T00:01:29.881Z,18.81
2023-06-30T00:03:56.833Z,18.71
2023-06-30T00:06:23.861Z,18.63
2023-06-30T00:08:51.296Z,18.66
2023-06-30T00:11:21.018Z,18.74
2023-06-30T00:13:47.604Z,18.77
2023-06-30T00:16:14.141Z,18.69
2023-06-30T00:18:40.755Z,18.65
2023-06-30T00:21:07.218Z,18.68
2023-06-30T00:23:33.859Z,18.66
2023-06-30T00:26:00.660Z,18.62
2023-06-30T00:28:27.444Z,18.67
2023-06-30T00:30:55.102Z,18.77
2023-06-30T00:33:24.494Z,18.81
2023-06-30T00:35:51.031Z,18.71
2023-06-30T00:38:17.805Z,18.72
2023-06-30T00:40:44.567Z,18.69
2023-06-30T00:43:11.193Z,18.62
2023-06-30T00:45:38.786Z,18.67
2023-06-30T00:48:05.680Z,18.65
2023-06-30T00:50:32.513Z,18.67
2023-06-30T00:53:00.098Z,18.69
2023-06-30T00:55:27.934Z,18.72
2023-06-30T00:57:54.665Z,18.63
2023-06-30T01:00:21.482Z,18.65
2023-06-30T01:03:11.405Z,18.43
2023-06-30T01:05:46.879Z,18.48
2023-06-30T01:08:21.364Z,18.39
2023-06-30T01:10:49.210Z,18.39
2023-06-30T01:13:17.455Z,18.42
2023-06-30T01:15:46.055Z,18.29
2023-06-30T01:18:14.588Z,18.45
2023-06-30T01:20:41.743Z,18.53
2023-06-30T01:23:40.056Z,18.40
2023-06-30T01:26:07.788Z,18.35
2023-06-30T01:28:35.941Z,18.44
2023-06-30T01:31:07.192Z,18.22
2023-06-30T01:37:45.844Z,18.30
2023-06-30T01:40:12.820Z,18.29
2023-06-30T01:42:41.156Z,18.18
2023-06-30T01:45:10.798Z,18.27
2023-06-30T01:47:37.727Z,18.00
2023-06-30T01:50:05.196Z,18.22
2023-06-30T01:52:31.861Z,18.16
2023-06-30T01:54:58.523Z,18.18
2023-06-30T01:57:25.245Z,18.22
2023-06-30T01:59:51.763Z,18.19
2023-06-30T02:02:18.308Z,18.18
2023-06-30T02:04:44.809Z,18.04
2023-06-30T02:07:11.477Z,18.10
2023-06-30T02:09:47.279Z,17.93
2023-06-30T02:12:14.381Z,17.95
2023-06-30T02:14:40.909Z,17.96
2023-06-30T02:17:09.857Z,18.00
2023-06-30T02:19:36.451Z,18.03
2023-06-30T02:22:02.998Z,18.01
2023-06-30T02:24:29.614Z,18.01
2023-06-30T02:26:56.205Z,17.96
2023-06-30T02:29:23.115Z,18.02
2023-06-30T02:31:49.836Z,17.99
2023-06-30T02:34:16.652Z,18.00
2023-06-30T02:36:43.195Z,17.96
2023-06-30T02:39:09.673Z,18.01
2023-06-30T02:41:37.626Z,17.90
2023-06-30T02:44:04.859Z,17.91
2023-06-30T02:46:31.707Z,17.89
2023-06-30T02:48:58.344Z,17.85
2023-06-30T02:51:25.176Z,17.59
2023-06-30T02:53:51.872Z,17.72
2023-06-30T02:56:18.724Z,17.80
2023-06-30T02:58:45.500Z,17.84
2023-06-30T03:01:12.178Z,17.87
2023-06-30T03:03:40.601Z,17.84
2023-06-30T03:06:08.532Z,17.86
2023-06-30T03:08:37.620Z,17.93
2023-06-30T03:11:04.226Z,17.88
2023-06-30T03:13:30.926Z,17.84
2023-06-30T03:15:58.400Z,17.88
2023-06-30T03:18:25.058Z,17.90
2023-06-30T03:20:51.562Z,17.86
2023-06-30T03:23:19.884Z,17.90
2023-06-30T03:25:46.990Z,17.99
2023-06-30T03:28:13.910Z,17.91
2023-06-30T03:30:40.538Z,17.81
2023-06-30T03:33:07.329Z,17.85
2023-06-30T03:35:33.991Z,17.88
2023-06-30T03:38:00.980Z,17.86
2023-06-30T03:40:27.698Z,17.85
2023-06-30T03:42:54.485Z,17.90
2023-06-30T03:45:21.186Z,17.93
2023-06-30T03:47:48.873Z,17.95
2023-06-30T03:50:17.105Z,17.88
2023-06-30T03:52:43.616Z,17.82
2023-06-30T03:55:10.170Z,17.95
2023-06-30T03:57:36.708Z,17.94
2023-06-30T04:00:04.017Z,17.97
2023-06-30T04:02:39.706Z,17.97
2023-06-30T04:05:06.640Z,17.98
2023-06-30T04:07:36.751Z,18.00
2023-06-30T04:10:03.561Z,18.09
2023-06-30T04:12:30.045Z,17.99
2023-06-30T04:14:56.926Z,18.01
2023-06-30T04:17:23.468Z,18.14
2023-06-30T04:19:49.927Z,18.20
2023-06-30T04:22:16.433Z,17.98
2023-06-30T04:24:42.879Z,18.24
2023-06-30T04:27:09.432Z,18.23
2023-06-30T04:29:35.875Z,18.32
2023-06-30T04:32:04.295Z,18.27
2023-06-30T04:34:31.001Z,18.34
2023-06-30T04:36:57.992Z,18.50
2023-06-30T04:39:24.624Z,18.26
2023-06-30T04:41:51.300Z,18.43
2023-06-30T04:44:17.906Z,18.44
2023-06-30T04:46:45.218Z,18.44
2023-06-30T04:49:11.789Z,18.38
2023-06-30T04:51:38.335Z,18.20
2023-06-30T04:54:04.755Z,18.25
2023-06-30T04:56:31.252Z,18.29
2023-06-30T04:58:57.719Z,18.36
2023-06-30T05:01:24.284Z,18.43
2023-06-30T05:03:50.841Z,18.64
2023-06-30T05:06:17.525Z,18.36
2023-06-30T05:08:44.032Z,18.14
2023-06-30T05:11:11.139Z,18.51
2023-06-30T05:13:37.813Z,18.70
2023-06-30T05:16:04.687Z,18.73
2023-06-30T05:18:31.385Z,18.76
2023-06-30T05:20:57.807Z,18.95
2023-06-30T05:23:24.996Z,18.89
2023-06-30T05:25:51.701Z,18.99
2023-06-30T05:28:18.103Z,19.21
2023-06-30T05:30:44.633Z,19.04
2023-06-30T05:33:11.063Z,19.34
2023-06-30T05:35:37.631Z,19.28
2023-06-30T05:38:04.153Z,19.56
2023-06-30T05:40:30.615Z,19.19
2023-06-30T05:42:57.686Z,19.61
2023-06-30T05:45:24.220Z,19.91
2023-06-30T05:47:50.765Z,19.79
2023-06-30T05:50:18.254Z,20.11
2023-06-30T05:52:44.882Z,19.74
2023-06-30T05:55:11.299Z,20.13
2023-06-30T05:57:37.825Z,20.17
2023-06-30T06:00:04.539Z,20.47
2023-06-30T06:02:38.641Z,20.48
2023-06-30T06:05:05.763Z,20.25
2023-06-30T06:07:32.750Z,20.31
2023-06-30T06:09:59.312Z,20.37
2023-06-30T06:12:25.790Z,20.52
2023-06-30T06:14:52.321Z,20.38
2023-06-30T06:17:18.716Z,20.33
2023-06-30T06:19:45.200Z,20.13
2023-06-30T06:22:11.628Z,20.41
2023-06-30T06:24:38.145Z,19.77
2023-06-30T06:27:05.172Z,20.57
2023-06-30T06:29:31.687Z,20.75
2023-06-30T06:31:58.077Z,20.92
2023-06-30T06:34:24.580Z,20.86
2023-06-30T06:36:51.002Z,21.03
2023-06-30T06:39:17.492Z,20.84
2023-06-30T06:41:45.952Z,20.93
2023-06-30T06:44:16.727Z,21.19
2023-06-30T06:46:44.486Z,21.31
2023-06-30T06:49:11.327Z,21.47
2023-06-30T06:51:37.843Z,21.79
2023-06-30T06:54:04.253Z,21.64
2023-06-30T06:56:30.819Z,21.84
2023-06-30T06:58:57.240Z,21.58
2023-06-30T07:01:23.802Z,21.73
2023-06-30T07:03:50.588Z,21.76
2023-06-30T07:06:17.747Z,21.45
2023-06-30T07:08:44.311Z,21.96
2023-06-30T07:11:12.026Z,22.10
2023-06-30T07:13:39.414Z,22.08
2023-06-30T07:16:06.716Z,22.36
2023-06-30T07:18:34.953Z,22.14
2023-06-30T07:21:03.185Z,22.57
2023-06-30T07:23:29.767Z,22.68
2023-06-30T07:25:56.324Z,22.73
2023-06-30T07:28:22.826Z,22.95
2023-06-30T07:30:49.824Z,22.77
2023-06-30T07:33:17.963Z,22.96
2023-06-30T07:35:44.706Z,22.37
2023-06-30T07:38:11.504Z,22.84
2023-06-30T07:40:53.854Z,23.29
2023-06-30T07:43:22.953Z,23.64
2023-06-30T07:45:49.802Z,23.59
2023-06-30T07:48:16.645Z,23.76
2023-06-30T07:50:54.666Z,23.37
2023-06-30T07:53:29.781Z,23.19
2023-06-30T07:55:56.296Z,23.50
2023-06-30T07:58:23.687Z,23.67
2023-06-30T08:00:50.250Z,23.02
2023-06-30T08:03:16.872Z,23.47
2023-06-30T08:05:43.611Z,23.83
2023-06-30T08:08:10.210Z,23.71
2023-06-30T08:10:39.083Z,23.93
2023-06-30T08:13:06.506Z,24.23
2023-06-30T08:15:33.016Z,24.23
2023-06-30T08:17:59.679Z,24.37
2023-06-30T08:20:27.148Z,24.48
2023-06-30T08:22:54.754Z,24.61
2023-06-30T08:25:23.444Z,24.55
2023-06-30T08:27:50.367Z,24.05
2023-06-30T08:30:16.968Z,24.70
2023-06-30T08:32:44.218Z,24.15
2023-06-30T08:35:11.208Z,24.24
2023-06-30T08:37:39.092Z,24.86
2023-06-30T08:40:06.695Z,24.73
2023-06-30T08:42:36.844Z,24.65
2023-06-30T08:45:04.514Z,24.93
2023-06-30T08:47:33.421Z,23.55
2023-06-30T08:50:00.791Z,24.01
2023-06-30T08:52:27.875Z,24.54
2023-06-30T08:54:54.487Z,24.81
2023-06-30T08:57:21.958Z,25.05
2023-06-30T08:59:48.746Z,25.46
2023-06-30T09:02:15.592Z,24.70
2023-06-30T09:04:43.162Z,25.66
2023-06-30T09:07:14.134Z,25.37
2023-06-30T09:09:46.504Z,25.32
2023-06-30T09:12:13.946Z,25.69
2023-06-30T09:14:42.115Z,26.24
2023-06-30T09:17:09.122Z,25.97
2023-06-30T09:19:37.091Z,24.99
2023-06-30T09:22:51.069Z,24.74
2023-06-30T09:24:52.611Z,24.85
2023-06-30T09:27:19.305Z,25.29
2023-06-30T09:29:56.185Z,24.86
2023-06-30T09:32:32.824Z,24.87
2023-06-30T09:35:09.287Z,24.65
2023-06-30T09:37:42.814Z,24.58
2023-06-30T09:40:15.373Z,24.69
2023-06-30T09:42:47.895Z,24.14
2023-06-30T09:45:15.019Z,24.98
2023-06-30T09:47:42.626Z,25.20
2023-06-30T09:50:11.058Z,25.19
2023-06-30T09:52:38.629Z,25.50
2023-06-30T09:55:11.900Z,25.92
2023-06-30T09:57:41.133Z,25.99
2023-06-30T10:00:11.638Z,26.12
2023-06-30T10:02:45.409Z,25.76
2023-06-30T10:05:12.324Z,25.61
2023-06-30T10:07:41.391Z,25.81
2023-06-30T10:10:10.941Z,25.96
2023-06-30T10:12:44.088Z,26.77
2023-06-30T10:15:12.129Z,26.58
2023-06-30T10:17:44.483Z,27.33
2023-06-30T10:20:11.736Z,27.05
2023-06-30T10:22:39.054Z,27.17
2023-06-30T10:25:09.232Z,27.35
2023-06-30T10:27:37.311Z,27.53
2023-06-30T10:30:04.370Z,27.70
2023-06-30T10:32:31.114Z,27.43
2023-06-30T10:34:59.619Z,27.60
2023-06-30T10:37:27.563Z,27.07
2023-06-30T10:39:54.324Z,26.48
2023-06-30T10:42:21.990Z,26.54
2023-06-30T10:44:49.182Z,26.49
2023-06-30T10:47:22.364Z,26.30
2023-06-30T10:49:52.726Z,25.86
2023-06-30T10:52:39.249Z,26.06
2023-06-30T10:55:07.432Z,25.77
2023-06-30T10:57:40.497Z,24.72
2023-06-30T11:00:11.222Z,24.84
2023-06-30T11:02:51.315Z,24.47
2023-06-30T11:05:22.583Z,24.20
2023-06-30T11:07:50.991Z,23.34
2023-06-30T11:10:28.861Z,23.63
2023-06-30T11:12:57.553Z,23.49
2023-06-30T11:15:43.018Z,22.97
2023-06-30T11:18:23.978Z,22.91
2023-06-30T11:21:04.791Z,22.69
2023-06-30T11:23:38.597Z,22.94
2023-06-30T11:26:15.785Z,22.59
2023-06-30T11:28:44.004Z,22.46
2023-06-30T11:31:12.828Z,22.46
2023-06-30T11:33:43.190Z,22.45
2023-06-30T11:36:17.239Z,22.65
2023-06-30T11:38:48.234Z,22.76
2023-06-30T11:41:24.855Z,22.72
2023-06-30T11:43:56.683Z,22.64
2023-06-30T11:46:24.176Z,22.64
2023-06-30T11:48:50.781Z,22.72
2023-06-30T11:51:20.826Z,22.68
2023-06-30T11:53:47.896Z,22.76
2023-06-30T11:56:14.416Z,23.18
2023-06-30T11:58:44.626Z,23.44
2023-06-30T12:01:11.125Z,23.42
2023-06-30T12:03:37.583Z,23.62
2023-06-30T12:06:04.187Z,23.18
2023-06-30T12:08:31.929Z,21.77
2023-06-30T12:10:58.715Z,22.72
2023-06-30T12:13:29.176Z,23.10
2023-06-30T12:15:59.629Z,22.64
2023-06-30T12:18:38.777Z,22.70
2023-06-30T12:21:14.066Z,22.24
2023-06-30T12:23:47.274Z,22.66
2023-06-30T12:26:14.583Z,22.97
2023-06-30T12:28:42.640Z,23.23
2023-06-30T12:31:09.207Z,22.93
2023-06-30T12:33:35.692Z,23.35
2023-06-30T12:36:07.100Z,22.80
2023-06-30T12:38:33.658Z,22.88
2023-06-30T12:41:00.226Z,23.43
2023-06-30T12:43:28.280Z,23.09
2023-06-30T12:45:54.930Z,23.42
2023-06-30T12:48:21.469Z,23.31
2023-06-30T12:50:48.205Z,23.48
2023-06-30T12:53:14.863Z,23.64
2023-06-30T12:55:41.404Z,24.52
2023-06-30T12:58:07.913Z,24.88
2023-06-30T13:00:34.520Z,24.11
2023-06-30T13:03:01.065Z,24.71
2023-06-30T13:05:27.695Z,24.87
2023-06-30T13:07:54.514Z,25.01
2023-06-30T13:10:21.067Z,25.29
2023-06-30T13:12:47.569Z,24.86
2023-06-30T13:15:14.154Z,25.19
2023-06-30T13:17:40.798Z,25.15
2023-06-30T13:20:09.081Z,24.29
2023-06-30T13:22:42.572Z,24.55
2023-06-30T13:25:14.720Z,24.25
2023-06-30T13:27:45.440Z,23.98
2023-06-30T13:30:12.302Z,24.45
2023-06-30T13:32:41.448Z,24.53
2023-06-30T13:35:08.795Z,24.05
2023-06-30T13:37:35.361Z,23.99
2023-06-30T13:40:01.969Z,24.32
2023-06-30T13:42:29.716Z,24.18
2023-06-30T13:44:56.224Z,24.32
2023-06-30T13:47:22.726Z,24.27
2023-06-30T13:49:49.242Z,24.28
2023-06-30T13:52:15.731Z,23.49
2023-06-30T13:54:43.159Z,24.41
2023-06-30T13:57:09.690Z,24.60
2023-06-30T13:59:36.327Z,23.73
2023-06-30T14:02:02.935Z,23.96
2023-06-30T14:04:29.621Z,24.07
2023-06-30T14:06:56.223Z,23.97
2023-06-30T14:09:22.733Z,23.65
2023-06-30T14:11:49.235Z,23.70
2023-06-30T14:14:15.785Z,23.22
2023-06-30T14:16:43.195Z,23.28
2023-06-30T14:19:09.827Z,23.57
2023-06-30T14:21:36.318Z,23.66
2023-06-30T14:24:03.202Z,22.73
2023-06-30T14:26:30.819Z,22.87
2023-06-30T14:28:57.634Z,23.67
2023-06-30T14:31:24.340Z,23.32
2023-06-30T14:33:50.965Z,23.15
2023-06-30T14:36:17.537Z,23.43
2023-06-30T14:38:44.551Z,22.75
2023-06-30T14:41:11.220Z,23.03
2023-06-30T14:43:37.991Z,22.27
2023-06-30T14:46:04.606Z,22.69
2023-06-30T14:48:31.281Z,22.68
2023-06-30T14:50:57.806Z,22.73
2023-06-30T14:53:24.726Z,22.74
2023-06-30T14:55:51.296Z,22.68
2023-06-30T14:58:17.805Z,22.07
2023-06-30T15:00:44.310Z,22.57
2023-06-30T15:03:10.996Z,22.16
2023-06-30T15:05:37.627Z,22.56
2023-06-30T15:08:04.626Z,22.35
2023-06-30T15:10:31.141Z,22.26
2023-06-30T15:12:57.542Z,22.70
2023-06-30T15:15:24.044Z,22.71
2023-06-30T15:17:50.814Z,23.03
2023-06-30T15:20:17.554Z,23.51
2023-06-30T15:22:44.197Z,23.90
2023-06-30T15:25:25.866Z,23.63
2023-06-30T15:27:52.473Z,24.11
2023-06-30T15:30:19.338Z,23.70
2023-06-30T15:32:46.059Z,24.04
2023-06-30T15:35:12.911Z,23.71
2023-06-30T15:37:39.845Z,23.71
2023-06-30T15:40:07.145Z,23.75
2023-06-30T15:42:33.815Z,24.56
2023-06-30T15:45:01.037Z,24.93
2023-06-30T15:47:27.796Z,24.29
2023-06-30T15:49:54.307Z,24.21
2023-06-30T15:52:20.853Z,24.28
2023-06-30T15:55:05.258Z,24.18
2023-06-30T15:57:31.804Z,24.28
2023-06-30T15:59:58.298Z,22.97
2023-06-30T16:02:24.900Z,23.44
2023-06-30T16:04:51.623Z,23.93
2023-06-30T16:07:18.176Z,23.74
2023-06-30T16:09:44.680Z,24.07
2023-06-30T16:12:11.358Z,22.82
2023-06-30T16:14:37.887Z,23.25
2023-06-30T16:17:04.716Z,22.56
2023-06-30T16:19:31.230Z,22.75
2023-06-30T16:21:57.798Z,22.87
2023-06-30T16:24:24.331Z,23.38
2023-06-30T16:26:50.854Z,22.97
2023-06-30T16:29:17.352Z,22.14
2023-06-30T16:31:43.894Z,22.11
2023-06-30T16:34:10.352Z,22.49
2023-06-30T16:36:38.643Z,22.24
2023-06-30T16:39:07.238Z,22.50
2023-06-30T16:41:33.641Z,22.00
2023-06-30T16:44:00.174Z,20.98
2023-06-30T16:46:27.509Z,21.49
2023-06-30T16:48:54.079Z,21.07
2023-06-30T16:51:20.558Z,21.09
2023-06-30T16:53:47.072Z,21.37
2023-06-30T16:56:13.487Z,21.17
2023-06-30T16:58:40.010Z,20.30
2023-06-30T17:01:06.561Z,20.79
2023-06-30T17:03:33.156Z,20.54
2023-06-30T17:05:59.715Z,20.42
2023-06-30T17:08:26.138Z,20.33
2023-06-30T17:10:52.674Z,20.13
2023-06-30T17:13:19.086Z,20.15
2023-06-30T17:15:45.892Z,20.52
2023-06-30T17:18:12.712Z,20.35
2023-06-30T17:20:39.382Z,20.31
2023-06-30T17:23:07.181Z,20.37
2023-06-30T17:25:33.896Z,20.77
2023-06-30T17:28:00.451Z,20.46
2023-06-30T17:30:28.211Z,20.52
2023-06-30T17:32:54.728Z,20.59
2023-06-30T17:35:21.266Z,20.65
2023-06-30T17:37:47.797Z,20.41
2023-06-30T17:40:14.359Z,20.72
2023-06-30T17:42:41.242Z,20.67
2023-06-30T17:45:07.903Z,20.61
2023-06-30T17:47:34.453Z,20.40
2023-06-30T17:50:01.208Z,20.66
2023-06-30T17:52:27.808Z,20.43
2023-06-30T17:54:54.284Z,20.77
2023-06-30T17:57:20.779Z,20.48
2023-06-30T17:59:47.209Z,20.55
2023-06-30T18:02:13.754Z,20.10
2023-06-30T18:04:40.261Z,20.30
2023-06-30T18:07:12.430Z,20.36
2023-06-30T18:09:41.088Z,20.46
2023-06-30T18:12:08.858Z,20.52
2023-06-30T18:14:36.977Z,20.22
2023-06-30T18:17:04.195Z,20.52
2023-06-30T18:19:31.913Z,20.21
2023-06-30T18:21:58.734Z,20.16
2023-06-30T18:24:25.601Z,20.46
2023-06-30T18:26:52.238Z,20.46
2023-06-30T18:29:22.825Z,20.00
2023-06-30T18:31:50.352Z,20.05
2023-06-30T18:34:16.953Z,20.25
2023-06-30T18:36:43.491Z,20.18
2023-06-30T18:39:10.375Z,20.14
2023-06-30T18:41:37.018Z,20.30
2023-06-30T18:44:04.243Z,19.92
2023-06-30T18:46:30.902Z,20.12
2023-06-30T18:48:57.987Z,20.09
2023-06-30T18:51:28.456Z,20.11
2023-06-30T18:53:55.433Z,19.81
2023-06-30T18:56:23.859Z,19.90
2023-06-30T18:58:55.352Z,19.92
2023-06-30T19:01:22.052Z,19.66
2023-06-30T19:03:51.025Z,19.67
2023-06-30T19:06:19.866Z,19.66
2023-06-30T19:08:46.527Z,19.51
2023-06-30T19:11:13.508Z,19.54
2023-06-30T19:13:40.035Z,19.44
2023-06-30T19:16:06.830Z,19.55
2023-06-30T19:18:33.404Z,19.64
2023-06-30T19:21:00.076Z,19.55
2023-06-30T19:23:27.307Z,19.71
2023-06-30T19:25:53.730Z,19.62
2023-06-30T19:28:20.820Z,19.34
2023-06-30T19:30:47.710Z,19.52
2023-06-30T19:33:14.558Z,19.28
2023-06-30T19:35:41.283Z,19.30
2023-06-30T19:38:07.830Z,19.33
2023-06-30T19:40:34.246Z,19.59
2023-06-30T19:43:00.736Z,19.43
2023-06-30T19:45:27.225Z,19.46
2023-06-30T19:47:53.772Z,19.21
2023-06-30T19:50:23.906Z,19.43
2023-06-30T19:52:51.629Z,19.22
2023-06-30T19:55:19.895Z,18.86
2023-06-30T19:57:47.287Z,19.34
2023-06-30T20:00:14.193Z,18.84
2023-06-30T20:02:43.245Z,19.19
2023-06-30T20:05:10.041Z,18.96
2023-06-30T20:07:36.695Z,19.12
2023-06-30T20:10:03.315Z,18.55
2023-06-30T20:12:29.728Z,18.83
2023-06-30T20:14:57.326Z,18.85
2023-06-30T20:17:24.358Z,18.99
2023-06-30T20:19:50.978Z,18.96
2023-06-30T20:22:17.492Z,18.74
2023-06-30T20:24:44.028Z,18.60
2023-06-30T20:27:10.647Z,18.70
2023-06-30T20:29:37.149Z,18.84
2023-06-30T20:32:04.007Z,18.85
2023-06-30T20:34:31.681Z,19.02
2023-06-30T20:36:58.189Z,19.00
2023-06-30T20:39:24.693Z,18.99
2023-06-30T20:41:51.206Z,18.58
2023-06-30T20:44:17.698Z,18.78
2023-06-30T20:46:44.245Z,18.94
2023-06-30T20:49:10.727Z,18.91
2023-06-30T20:51:37.234Z,18.69
2023-06-30T20:54:03.729Z,18.50
2023-06-30T20:56:31.435Z,18.76
2023-06-30T20:58:58.153Z,18.63
2023-06-30T21:01:24.750Z,18.28
2023-06-30T21:03:51.664Z,18.60
2023-06-30T21:06:18.999Z,18.66
2023-06-30T21:08:46.735Z,18.75
2023-06-30T21:11:14.167Z,18.30
2023-06-30T21:13:40.867Z,18.15
2023-06-30T21:16:08.173Z,18.36
2023-06-30T21:18:34.906Z,18.45
2023-06-30T21:21:02.394Z,18.55
2023-06-30T21:23:28.930Z,18.64
2023-06-30T21:25:55.417Z,18.83
2023-06-30T21:28:21.912Z,18.85
2023-06-30T21:30:48.630Z,18.48
2023-06-30T21:33:15.671Z,18.92
2023-06-30T21:35:42.224Z,18.70
2023-06-30T21:38:08.676Z,18.84
2023-06-30T21:40:35.201Z,18.74
2023-06-30T21:43:01.638Z,18.99
2023-06-30T21:45:28.171Z,18.72
2023-06-30T21:47:54.614Z,18.79
2023-06-30T21:50:22.557Z,18.75
2023-06-30T21:52:49.121Z,18.76
2023-06-30T21:55:15.816Z,18.76
2023-06-30T21:57:42.355Z,18.80
2023-06-30T22:17:25.962Z,18.01
2023-06-30T22:19:52.668Z,17.93
2023-06-30T22:22:19.137Z,18.18
2023-06-30T22:24:45.693Z,18.17
2023-06-30T22:27:12.496Z,17.99
2023-06-30T22:29:39.122Z,18.28
2023-06-30T22:32:06.241Z,18.15
2023-06-30T22:34:32.868Z,18.33
2023-06-30T22:36:59.456Z,18.14
2023-06-30T22:39:25.939Z,18.12
2023-06-30T22:41:52.554Z,18.17
2023-06-30T22:44:19.129Z,18.13
2023-06-30T22:46:45.787Z,18.15
2023-06-30T22:49:12.455Z,18.03
2023-06-30T22:51:38.973Z,18.04
2023-06-30T22:54:05.562Z,18.13
2023-06-30T22:56:32.061Z,18.22
2023-06-30T22:58:58.704Z,18.08
2023-06-30T23:01:25.257Z,17.96
2023-06-30T23:03:51.989Z,18.08
2023-06-30T23:06:18.524Z,18.04
2023-06-30T23:08:45.032Z,18.16
2023-06-30T23:11:11.671Z,18.21
2023-06-30T23:13:38.309Z,18.11
2023-06-30T23:16:05.120Z,18.21
2023-06-30T23:18:38.399Z,18.13
2023-06-30T23:21:10.356Z,18.21
2023-06-30T23:23:41.708Z,18.21
2023-06-30T23:26:11.253Z,17.62
2023-06-30T23:31:20.716Z,17.94
2023-06-30T23:33:51.371Z,17.78
2023-06-30T23:36:18.274Z,17.80
2023-06-30T23:38:44.927Z,17.95
2023-06-30T23:41:12.699Z,17.77
2023-06-30T23:43:39.259Z,17.46
2023-06-30T23:46:05.752Z,17.86
2023-06-30T23:48:32.302Z,17.80
2023-06-30T23:50:58.770Z,17.63
2023-06-30T23:53:25.364Z,17.71
2023-06-30T23:55:51.918Z,17.80
2023-06-30T23:58:18.473Z,17.87
